createdAt,value
2023-04-21T00:00:18.653Z,992.82
2023-04-21T00:01:19.662Z,992.89
2023-04-21T00:02:18.732Z,992.79
2023-04-21T00:03:18.856Z,992.75
2023-04-21T00:04:18.803Z,992.86
2023-04-21T00:05:18.939Z,992.86
2023-04-21T00:06:18.617Z,992.82
2023-04-21T00:07:18.701Z,992.86
2023-04-21T00:08:18.603Z,992.87
2023-04-21T00:09:18.817Z,992.93
2023-04-21T00:10:18.586Z,992.84
2023-04-21T00:11:18.586Z,992.86
2023-04-21T00:12:18.602Z,992.83
2023-04-21T00:13:18.561Z,992.86
2023-04-21T00:14:18.552Z,992.79
2023-04-21T00:15:18.554Z,992.81
2023-04-21T00:16:18.576Z,992.68
2023-04-21T00:17:18.575Z,992.79
2023-04-21T00:18:18.525Z,992.59
2023-04-21T00:19:18.676Z,992.73
2023-04-21T00:20:18.519Z,992.72
2023-04-21T00:21:18.512Z,992.68
2023-04-21T00:22:18.517Z,992.72
2023-04-21T00:23:18.501Z,992.66
2023-04-21T00:24:18.476Z,992.67
2023-04-21T00:25:18.465Z,992.69
2023-04-21T00:26:18.470Z,992.71
2023-04-21T00:27:19.010Z,992.65
2023-04-21T00:28:18.447Z,992.70
2023-04-21T00:29:18.676Z,992.67
2023-04-21T00:30:18.434Z,992.74
2023-04-21T00:31:18.436Z,992.77
2023-04-21T00:32:18.470Z,992.76
2023-04-21T00:33:18.413Z,992.77
2023-04-21T00:34:18.403Z,992.73
2023-04-21T00:35:18.405Z,992.80
2023-04-21T00:36:18.397Z,992.87
2023-04-21T00:37:18.422Z,992.86
2023-04-21T00:38:18.373Z,992.85
2023-04-21T00:39:18.584Z,992.80
2023-04-21T00:40:18.380Z,992.80
2023-04-21T00:41:18.367Z,992.83
2023-04-21T00:42:18.366Z,992.84
2023-04-21T00:43:18.337Z,992.84
2023-04-21T00:44:18.328Z,992.91
2023-04-21T00:45:18.315Z,992.88
2023-04-21T00:46:18.379Z,992.89
2023-04-21T00:47:18.371Z,992.94
2023-04-21T00:48:18.298Z,992.86
2023-04-21T00:49:18.548Z,992.94
2023-04-21T00:50:18.282Z,992.94
2023-04-21T00:51:18.273Z,992.89
2023-04-21T00:52:18.301Z,993.00
2023-04-21T00:53:18.258Z,992.89
2023-04-21T00:54:18.247Z,993.00
2023-04-21T00:55:18.246Z,992.97
2023-04-21T00:56:18.230Z,992.92
2023-04-21T00:57:18.249Z,992.88
2023-04-21T00:58:18.223Z,992.92
2023-04-21T00:59:18.404Z,992.96
2023-04-21T01:00:18.211Z,992.89
2023-04-21T01:01:18.213Z,992.85
2023-04-21T01:02:18.332Z,992.94
2023-04-21T01:03:18.367Z,992.90
2023-04-21T01:04:19.208Z,992.90
2023-04-21T01:05:18.195Z,992.83
2023-04-21T01:06:18.294Z,992.88
2023-04-21T01:07:18.178Z,992.82
2023-04-21T01:08:18.140Z,992.92
2023-04-21T01:09:18.381Z,992.91
2023-04-21T01:10:18.128Z,992.97
2023-04-21T01:11:18.114Z,992.99
2023-04-21T01:12:18.135Z,992.94
2023-04-21T01:13:18.108Z,992.97
2023-04-21T01:14:18.096Z,992.97
2023-04-21T01:15:18.107Z,992.92
2023-04-21T01:16:18.141Z,992.91
2023-04-21T01:17:18.102Z,992.89
2023-04-21T01:18:18.090Z,992.90
2023-04-21T01:19:18.231Z,992.95
2023-04-21T01:20:18.055Z,992.90
2023-04-21T01:21:18.047Z,993.03
2023-04-21T01:22:18.033Z,992.93
2023-04-21T01:23:18.069Z,992.93
2023-04-21T01:24:18.025Z,992.93
2023-04-21T01:25:18.015Z,992.95
2023-04-21T01:26:18.005Z,992.95
2023-04-21T01:27:18.022Z,992.97
2023-04-21T01:28:18.009Z,992.94
2023-04-21T01:29:18.262Z,992.98
2023-04-21T01:30:17.966Z,992.92
2023-04-21T01:31:17.966Z,992.96
2023-04-21T01:32:18.065Z,993.03
2023-04-21T01:33:18.063Z,992.96
2023-04-21T01:34:17.940Z,992.98
2023-04-21T01:35:17.951Z,992.98
2023-04-21T01:36:17.920Z,992.99
2023-04-21T01:37:17.950Z,993.02
2023-04-21T01:38:19.309Z,992.96
2023-04-21T01:39:19.105Z,992.96
2023-04-21T01:40:17.897Z,992.98
2023-04-21T01:41:17.889Z,993.09
2023-04-21T01:42:17.883Z,993.03
2023-04-21T01:43:18.905Z,993.00
2023-04-21T01:44:17.875Z,993.05
2023-04-21T01:45:17.864Z,993.02
2023-04-21T01:46:17.888Z,993.00
2023-04-21T01:47:17.882Z,992.97
2023-04-21T01:48:17.927Z,993.01
2023-04-21T01:49:18.033Z,992.99
2023-04-21T01:50:17.832Z,993.01
2023-04-21T01:51:17.824Z,993.03
2023-04-21T01:52:17.828Z,993.03
2023-04-21T01:53:17.833Z,992.95
2023-04-21T01:54:17.802Z,992.88
2023-04-21T01:55:17.791Z,992.96
2023-04-21T01:56:17.777Z,993.00
2023-04-21T01:57:17.830Z,993.02
2023-04-21T01:58:17.759Z,992.98
2023-04-21T01:59:17.887Z,993.02
2023-04-21T02:00:17.760Z,993.00
2023-04-21T02:01:17.816Z,993.00
2023-04-21T02:02:17.800Z,993.12
2023-04-21T02:03:18.026Z,993.05
2023-04-21T02:04:17.849Z,993.10
2023-04-21T02:05:17.713Z,993.00
2023-04-21T02:06:17.700Z,993.08
2023-04-21T02:07:17.690Z,993.02
2023-04-21T02:08:17.710Z,993.10
2023-04-21T02:09:18.024Z,992.95
2023-04-21T02:10:17.669Z,993.01
2023-04-21T02:11:17.670Z,992.98
2023-04-21T02:12:17.656Z,993.05
2023-04-21T02:13:17.671Z,992.97
2023-04-21T02:14:17.639Z,993.03
2023-04-21T02:15:17.628Z,993.07
2023-04-21T02:16:17.637Z,992.97
2023-04-21T02:17:17.663Z,993.06
2023-04-21T02:18:17.635Z,993.04
2023-04-21T02:19:17.864Z,993.01
2023-04-21T02:20:17.638Z,993.04
2023-04-21T02:21:17.629Z,992.96
2023-04-21T02:22:17.577Z,993.02
2023-04-21T02:23:17.641Z,992.92
2023-04-21T02:24:17.610Z,992.93
2023-04-21T02:25:17.590Z,992.97
2023-04-21T02:26:17.560Z,992.92
2023-04-21T02:27:17.673Z,992.89
2023-04-21T02:28:17.573Z,992.92
2023-04-21T02:29:17.797Z,992.93
2023-04-21T02:30:17.601Z,992.88
2023-04-21T02:31:17.599Z,992.97
2023-04-21T02:32:25.499Z,992.98
2023-04-21T02:33:19.572Z,992.95
2023-04-21T02:34:17.491Z,992.90
2023-04-21T02:35:17.484Z,992.98
2023-04-21T02:36:17.474Z,992.93
2023-04-21T02:37:17.468Z,992.97
2023-04-21T02:38:17.500Z,992.99
2023-04-21T02:39:17.689Z,992.90
2023-04-21T02:40:17.484Z,992.85
2023-04-21T02:41:17.541Z,992.84
2023-04-21T02:42:17.444Z,992.85
2023-04-21T02:43:17.452Z,992.91
2023-04-21T02:44:17.529Z,992.80
2023-04-21T02:45:17.420Z,992.91
2023-04-21T02:46:17.696Z,992.81
2023-04-21T02:47:18.168Z,992.94
2023-04-21T02:48:17.434Z,992.88
2023-04-21T02:49:17.694Z,992.90
2023-04-21T02:50:17.392Z,992.96
2023-04-21T02:51:17.367Z,992.95
2023-04-21T02:52:17.360Z,992.91
2023-04-21T02:53:17.371Z,992.95
2023-04-21T02:54:17.337Z,992.90
2023-04-21T02:55:17.331Z,992.97
2023-04-21T02:56:17.343Z,992.96
2023-04-21T02:57:17.326Z,992.86
2023-04-21T02:58:17.356Z,992.89
2023-04-21T02:59:18.237Z,992.90
2023-04-21T03:00:17.291Z,992.94
2023-04-21T03:01:17.361Z,992.85
2023-04-21T03:02:17.360Z,992.90
2023-04-21T03:03:17.618Z,992.95
2023-04-21T03:04:17.372Z,992.90
2023-04-21T03:05:17.276Z,992.90
2023-04-21T03:06:17.259Z,992.92
2023-04-21T03:07:17.241Z,992.87
2023-04-21T03:08:17.271Z,992.84
2023-04-21T03:09:17.400Z,992.81
2023-04-21T03:10:17.217Z,992.85
2023-04-21T03:11:17.226Z,992.82
2023-04-21T03:12:17.201Z,992.78
2023-04-21T03:13:17.238Z,992.84
2023-04-21T03:14:17.206Z,992.86
2023-04-21T03:15:17.182Z,992.86
2023-04-21T03:16:17.210Z,992.83
2023-04-21T03:17:17.167Z,992.83
2023-04-21T03:18:17.188Z,992.81
2023-04-21T03:19:17.444Z,992.74
2023-04-21T03:20:17.172Z,992.85
2023-04-21T03:21:17.252Z,992.83
2023-04-21T03:22:17.286Z,992.72
2023-04-21T03:23:18.094Z,992.78
2023-04-21T03:24:17.202Z,992.77
2023-04-21T03:25:17.128Z,992.73
2023-04-21T03:26:17.110Z,992.80
2023-04-21T03:27:17.109Z,992.82
2023-04-21T03:28:17.139Z,992.82
2023-04-21T03:29:17.283Z,992.74
2023-04-21T03:30:17.099Z,992.81
2023-04-21T03:31:17.072Z,992.83
2023-04-21T03:32:17.165Z,992.89
2023-04-21T03:33:17.148Z,992.79
2023-04-21T03:34:17.107Z,992.81
2023-04-21T03:35:17.084Z,992.76
2023-04-21T03:36:17.047Z,992.77
2023-04-21T03:37:17.112Z,992.75
2023-04-21T03:38:17.080Z,992.79
2023-04-21T03:39:20.091Z,992.83
2023-04-21T03:40:18.029Z,992.83
2023-04-21T03:41:17.003Z,992.84
2023-04-21T03:42:16.983Z,992.77
2023-04-21T03:43:16.981Z,992.80
2023-04-21T03:44:17.032Z,992.77
2023-04-21T03:45:16.962Z,992.86
2023-04-21T03:46:17.054Z,992.77
2023-04-21T03:47:16.969Z,992.84
2023-04-21T03:48:16.980Z,992.87
2023-04-21T03:49:16.996Z,992.81
2023-04-21T03:50:17.965Z,992.94
2023-04-21T03:51:16.956Z,992.93
2023-04-21T03:52:16.934Z,992.99
2023-04-21T03:53:16.923Z,992.97
2023-04-21T03:54:16.924Z,992.89
2023-04-21T03:55:16.927Z,992.97
2023-04-21T03:56:16.911Z,992.94
2023-04-21T03:57:16.896Z,992.97
2023-04-21T03:58:16.889Z,992.95
2023-04-21T03:59:17.097Z,992.97
2023-04-21T04:00:16.884Z,992.98
2023-04-21T04:01:16.869Z,993.02
2023-04-21T04:02:16.953Z,992.99
2023-04-21T04:03:17.755Z,993.05
2023-04-21T04:04:17.269Z,993.02
2023-04-21T04:05:16.874Z,993.01
2023-04-21T04:06:16.834Z,992.92
2023-04-21T04:07:16.823Z,993.00
2023-04-21T04:08:16.848Z,993.05
2023-04-21T04:09:16.984Z,993.05
2023-04-21T04:10:16.812Z,993.06
2023-04-21T04:11:16.798Z,993.03
2023-04-21T04:12:16.792Z,992.95
2023-04-21T04:13:16.780Z,993.00
2023-04-21T04:14:16.931Z,992.94
2023-04-21T04:15:16.774Z,992.96
2023-04-21T04:16:16.757Z,993.01
2023-04-21T04:17:16.743Z,992.83
2023-04-21T04:18:16.757Z,992.99
2023-04-21T04:19:16.806Z,992.94
2023-04-21T04:20:16.689Z,992.84
2023-04-21T04:21:16.715Z,992.96
2023-04-21T04:22:16.708Z,992.84
2023-04-21T04:23:16.672Z,992.88
2023-04-21T04:24:16.684Z,992.94
2023-04-21T04:25:16.648Z,992.84
2023-04-21T04:26:16.685Z,992.91
2023-04-21T04:27:16.683Z,992.85
2023-04-21T04:28:16.656Z,992.85
2023-04-21T04:29:16.757Z,992.87
2023-04-21T04:30:16.670Z,992.86
2023-04-21T04:31:16.674Z,992.83
2023-04-21T04:32:16.640Z,992.87
2023-04-21T04:33:16.630Z,992.87
2023-04-21T04:34:16.649Z,992.89
2023-04-21T04:35:16.596Z,992.87
2023-04-21T04:36:16.582Z,992.89
2023-04-21T04:37:16.560Z,992.88
2023-04-21T04:38:16.557Z,992.88
2023-04-21T04:39:16.627Z,992.82
2023-04-21T04:40:16.536Z,992.79
2023-04-21T04:41:16.608Z,992.84
2023-04-21T04:42:16.718Z,992.89
2023-04-21T04:43:16.516Z,992.92
2023-04-21T04:44:16.535Z,992.88
2023-04-21T04:45:16.501Z,992.81
2023-04-21T04:46:16.544Z,992.79
2023-04-21T04:47:16.508Z,992.92
2023-04-21T04:48:16.494Z,992.87
2023-04-21T04:49:16.503Z,992.90
2023-04-21T04:50:16.479Z,992.94
2023-04-21T04:51:16.508Z,992.90
2023-04-21T04:52:16.464Z,992.91
2023-04-21T04:53:16.431Z,992.92
2023-04-21T04:54:16.509Z,992.87
2023-04-21T04:55:16.420Z,992.96
2023-04-21T04:56:16.435Z,992.93
2023-04-21T04:57:16.401Z,992.91
2023-04-21T04:58:16.416Z,992.93
2023-04-21T04:59:16.419Z,993.00
2023-04-21T05:00:16.405Z,992.88
2023-04-21T05:01:16.367Z,992.94
2023-04-21T05:02:16.478Z,992.96
2023-04-21T05:03:16.495Z,992.88
2023-04-21T05:04:16.636Z,993.01
2023-04-21T05:05:16.476Z,992.97
2023-04-21T05:06:16.341Z,993.01
2023-04-21T05:07:16.335Z,993.02
2023-04-21T05:08:17.975Z,993.01
2023-04-21T05:09:17.337Z,993.03
2023-04-21T05:10:16.320Z,993.08
2023-04-21T05:11:16.325Z,993.13
2023-04-21T05:12:16.281Z,993.08
2023-04-21T05:13:16.274Z,993.15
2023-04-21T05:14:16.293Z,993.14
2023-04-21T05:15:16.272Z,993.07
2023-04-21T05:16:16.311Z,993.09
2023-04-21T05:17:16.249Z,993.15
2023-04-21T05:18:16.231Z,993.18
2023-04-21T05:19:48.174Z,993.13
2023-04-21T05:20:16.232Z,993.22
2023-04-21T05:21:16.228Z,993.10
2023-04-21T05:22:16.237Z,993.15
2023-04-21T05:23:16.229Z,993.19
2023-04-21T05:24:16.271Z,993.01
2023-04-21T05:25:16.250Z,993.15
2023-04-21T05:26:16.182Z,993.17
2023-04-21T05:27:16.171Z,993.16
2023-04-21T05:28:16.167Z,993.19
2023-04-21T05:29:16.940Z,993.23
2023-04-21T05:30:16.158Z,993.24
2023-04-21T05:31:16.142Z,993.25
2023-04-21T05:32:16.186Z,993.25
2023-04-21T05:33:16.194Z,993.26
2023-04-21T05:34:16.196Z,993.20
2023-04-21T05:35:16.111Z,993.20
2023-04-21T05:36:16.110Z,993.25
2023-04-21T05:37:16.104Z,993.30
2023-04-21T05:38:16.211Z,993.21
2023-04-21T05:39:16.471Z,993.31
2023-04-21T05:40:16.078Z,993.27
2023-04-21T05:41:16.076Z,993.32
2023-04-21T05:42:16.070Z,993.25
2023-04-21T05:43:16.048Z,993.32
2023-04-21T05:44:16.108Z,993.37
2023-04-21T05:45:17.037Z,993.28
2023-04-21T05:46:16.137Z,993.33
2023-04-21T05:47:16.017Z,993.37
2023-04-21T05:48:16.049Z,993.30
2023-04-21T05:49:16.024Z,993.35
2023-04-21T05:50:16.011Z,993.36
2023-04-21T05:51:15.976Z,993.33
2023-04-21T05:52:15.974Z,993.36
2023-04-21T05:53:15.961Z,993.35
2023-04-21T05:54:15.978Z,993.28
2023-04-21T05:55:15.962Z,993.35
2023-04-21T05:56:15.950Z,993.29
2023-04-21T05:57:15.936Z,993.25
2023-04-21T05:58:15.930Z,993.33
2023-04-21T05:59:15.968Z,993.33
2023-04-21T06:00:15.903Z,993.32
2023-04-21T06:01:15.927Z,993.29
2023-04-21T06:02:15.958Z,993.34
2023-04-21T06:03:16.076Z,993.37
2023-04-21T06:04:16.027Z,993.28
2023-04-21T06:05:15.909Z,993.30
2023-04-21T06:06:15.888Z,993.29
2023-04-21T06:07:17.552Z,993.33
2023-04-21T06:08:15.862Z,993.27
2023-04-21T06:09:15.882Z,993.31
2023-04-21T06:10:15.844Z,993.24
2023-04-21T06:11:15.827Z,993.23
2023-04-21T06:12:15.820Z,993.25
2023-04-21T06:13:15.824Z,993.29
2023-04-21T06:14:15.846Z,993.25
2023-04-21T06:15:15.804Z,993.24
2023-04-21T06:16:15.840Z,993.27
2023-04-21T06:17:15.786Z,993.24
2023-04-21T06:18:15.799Z,993.27
2023-04-21T06:19:15.790Z,993.18
2023-04-21T06:20:15.925Z,993.19
2023-04-21T06:21:15.761Z,993.22
2023-04-21T06:22:15.842Z,993.16
2023-04-21T06:23:15.738Z,993.24
2023-04-21T06:24:15.770Z,993.19
2023-04-21T06:25:15.738Z,993.27
2023-04-21T06:26:15.711Z,993.22
2023-04-21T06:27:15.707Z,993.20
2023-04-21T06:28:15.701Z,993.25
2023-04-21T06:29:15.715Z,993.27
2023-04-21T06:30:15.693Z,993.25
2023-04-21T06:31:15.850Z,993.18
2023-04-21T06:32:15.668Z,993.13
2023-04-21T06:33:15.664Z,993.27
2023-04-21T06:34:15.686Z,993.16
2023-04-21T06:35:15.644Z,993.15
2023-04-21T06:36:17.494Z,993.24
2023-04-21T06:37:15.642Z,993.18
2023-04-21T06:38:15.665Z,993.26
2023-04-21T06:39:15.662Z,993.13
2023-04-21T06:40:15.600Z,993.06
2023-04-21T06:41:15.593Z,993.18
2023-04-21T06:42:15.586Z,993.23
2023-04-21T06:43:15.588Z,993.13
2023-04-21T06:44:15.606Z,993.15
2023-04-21T06:45:15.578Z,993.15
2023-04-21T06:46:15.555Z,993.19
2023-04-21T06:47:15.612Z,993.15
2023-04-21T06:48:15.610Z,993.17
2023-04-21T06:49:15.559Z,993.12
2023-04-21T06:50:15.528Z,993.08
2023-04-21T06:51:15.521Z,993.06
2023-04-21T06:52:16.370Z,993.13
2023-04-21T06:53:15.520Z,993.09
2023-04-21T06:54:15.575Z,993.02
2023-04-21T06:55:15.490Z,993.01
2023-04-21T06:56:15.481Z,993.02
2023-04-21T06:57:15.510Z,992.98
2023-04-21T06:58:15.461Z,993.00
2023-04-21T06:59:15.477Z,992.96
2023-04-21T07:00:15.472Z,992.98
2023-04-21T07:01:15.473Z,992.98
2023-04-21T07:02:15.444Z,993.02
2023-04-21T07:03:15.622Z,992.96
2023-04-21T07:04:15.489Z,993.02
2023-04-21T07:05:15.434Z,992.92
2023-04-21T07:06:15.499Z,992.98
2023-04-21T07:07:15.408Z,992.98
2023-04-21T07:08:15.391Z,992.98
2023-04-21T07:09:15.384Z,992.96
2023-04-21T07:10:15.410Z,992.96
2023-04-21T07:11:15.373Z,992.96
2023-04-21T07:12:15.381Z,992.93
2023-04-21T07:13:15.348Z,992.95
2023-04-21T07:14:15.378Z,992.95
2023-04-21T07:15:15.369Z,992.97
2023-04-21T07:16:15.350Z,992.99
2023-04-21T07:17:15.321Z,992.96
2023-04-21T07:18:15.358Z,993.00
2023-04-21T07:19:15.314Z,992.95
2023-04-21T07:20:15.336Z,992.94
2023-04-21T07:21:15.297Z,992.95
2023-04-21T07:22:15.287Z,992.94
2023-04-21T07:23:15.287Z,992.99
2023-04-21T07:24:15.278Z,993.02
2023-04-21T07:25:15.269Z,993.02
2023-04-21T07:26:15.280Z,993.03
2023-04-21T07:27:15.278Z,993.01
2023-04-21T07:28:15.234Z,993.02
2023-04-21T07:29:15.237Z,992.99
2023-04-21T07:30:15.230Z,992.90
2023-04-21T07:31:15.299Z,992.92
2023-04-21T07:32:15.215Z,992.95
2023-04-21T07:33:15.224Z,993.00
2023-04-21T07:34:15.198Z,992.97
2023-04-21T07:35:16.215Z,993.00
2023-04-21T07:36:15.180Z,992.98
2023-04-21T07:37:15.181Z,992.99
2023-04-21T07:38:15.163Z,992.91
2023-04-21T07:39:15.167Z,992.99
2023-04-21T07:40:15.180Z,992.83
2023-04-21T07:41:15.192Z,992.92
2023-04-21T07:42:15.128Z,992.86
2023-04-21T07:43:15.125Z,992.84
2023-04-21T07:44:15.109Z,992.77
2023-04-21T07:45:15.177Z,992.79
2023-04-21T07:46:15.135Z,992.80
2023-04-21T07:47:15.093Z,992.79
2023-04-21T07:48:15.119Z,992.74
2023-04-21T07:49:15.202Z,992.78
2023-04-21T07:50:15.114Z,992.78
2023-04-21T07:51:15.083Z,992.83
2023-04-21T07:52:15.050Z,992.87
2023-04-21T07:53:15.061Z,992.80
2023-04-21T07:54:15.038Z,992.71
2023-04-21T07:55:15.057Z,992.77
2023-04-21T07:56:15.040Z,992.71
2023-04-21T07:57:15.013Z,992.65
2023-04-21T07:58:15.008Z,992.63
2023-04-21T07:59:15.002Z,992.70
2023-04-21T08:00:15.012Z,992.70
2023-04-21T08:01:14.994Z,992.61
2023-04-21T08:02:15.079Z,992.64
2023-04-21T08:03:15.093Z,992.73
2023-04-21T08:04:15.055Z,992.66
2023-04-21T08:05:15.186Z,992.64
2023-04-21T08:06:15.103Z,992.52
2023-04-21T08:07:15.007Z,992.74
2023-04-21T08:08:14.926Z,992.64
2023-04-21T08:09:14.967Z,992.62
2023-04-21T08:10:14.937Z,992.62
2023-04-21T08:11:14.923Z,992.58
2023-04-21T08:12:15.102Z,992.57
2023-04-21T08:13:14.906Z,992.63
2023-04-21T08:14:14.882Z,992.65
2023-04-21T08:15:14.923Z,992.55
2023-04-21T08:16:14.908Z,992.57
2023-04-21T08:17:14.854Z,992.59
2023-04-21T08:18:14.932Z,992.62
2023-04-21T08:19:14.853Z,992.61
2023-04-21T08:20:14.880Z,992.53
2023-04-21T08:21:14.836Z,992.64
2023-04-21T08:22:14.822Z,992.59
2023-04-21T08:23:14.920Z,992.60
2023-04-21T08:24:14.807Z,992.54
2023-04-21T08:25:14.837Z,992.55
2023-04-21T08:26:14.862Z,992.52
2023-04-21T08:27:14.787Z,992.53
2023-04-21T08:28:14.832Z,992.50
2023-04-21T08:29:14.788Z,992.53
2023-04-21T08:30:14.795Z,992.55
2023-04-21T08:31:14.749Z,992.59
2023-04-21T08:32:14.768Z,992.57
2023-04-21T08:33:14.811Z,992.50
2023-04-21T08:34:14.744Z,992.55
2023-04-21T08:35:14.821Z,992.58
2023-04-21T08:37:15.705Z,992.61
2023-04-21T08:38:14.709Z,992.52
2023-04-21T08:39:14.692Z,992.39
2023-04-21T08:40:14.761Z,992.54
2023-04-21T08:41:14.675Z,992.50
2023-04-21T08:42:14.679Z,992.55
2023-04-21T08:43:14.705Z,992.52
2023-04-21T08:44:14.649Z,992.48
2023-04-21T08:45:14.680Z,992.50
2023-04-21T08:46:15.555Z,992.50
2023-04-21T08:47:14.701Z,992.52
2023-04-21T08:48:14.720Z,992.55
2023-04-21T08:49:14.613Z,992.44
2023-04-21T08:50:14.709Z,992.42
2023-04-21T08:51:14.599Z,992.41
2023-04-21T08:52:14.616Z,992.42
2023-04-21T08:53:14.580Z,992.41
2023-04-21T08:54:14.577Z,992.41
2023-04-21T08:55:14.627Z,992.42
2023-04-21T08:56:14.568Z,992.34
2023-04-21T08:57:16.138Z,992.29
2023-04-21T08:58:15.550Z,992.40
2023-04-21T08:59:14.535Z,992.40
2023-04-21T09:00:14.557Z,992.34
2023-04-21T09:01:14.524Z,992.29
2023-04-21T09:02:14.587Z,992.34
2023-04-21T09:03:25.016Z,992.31
2023-04-21T09:04:16.661Z,992.26
2023-04-21T09:05:14.689Z,992.29
2023-04-21T09:06:14.702Z,992.28
2023-04-21T09:07:14.486Z,992.18
2023-04-21T09:08:14.478Z,992.10
2023-04-21T09:09:14.461Z,992.24
2023-04-21T09:10:14.477Z,992.16
2023-04-21T09:11:14.470Z,992.18
2023-04-21T09:12:14.456Z,992.19
2023-04-21T09:13:14.444Z,992.24
2023-04-21T09:14:14.425Z,992.15
2023-04-21T09:15:14.444Z,992.12
2023-04-21T09:16:14.418Z,992.16
2023-04-21T09:17:14.478Z,992.13
2023-04-21T09:18:14.395Z,992.13
2023-04-21T09:19:14.385Z,992.12
2023-04-21T09:20:14.428Z,992.12
2023-04-21T09:21:14.375Z,992.16
2023-04-21T09:22:14.369Z,992.10
2023-04-21T09:23:14.379Z,992.24
2023-04-21T09:24:14.386Z,992.25
2023-04-21T09:25:14.370Z,992.14
2023-04-21T09:26:14.338Z,992.18
2023-04-21T09:27:14.328Z,992.19
2023-04-21T09:28:14.319Z,992.16
2023-04-21T09:29:14.308Z,992.07
2023-04-21T09:30:14.337Z,992.18
2023-04-21T09:31:14.393Z,992.10
2023-04-21T09:32:14.292Z,992.16
2023-04-21T09:33:27.123Z,992.15
2023-04-21T09:34:16.360Z,992.03
2023-04-21T09:35:14.291Z,992.13
2023-04-21T09:36:14.262Z,992.19
2023-04-21T09:37:15.671Z,992.05
2023-04-21T09:38:14.237Z,992.19
2023-04-21T09:39:35.706Z,992.12
2023-04-21T09:40:16.278Z,992.09
2023-04-21T09:41:14.218Z,992.09
2023-04-21T09:42:14.214Z,992.14
2023-04-21T09:43:14.204Z,992.10
2023-04-21T09:44:14.219Z,992.16
2023-04-21T09:45:32.434Z,992.13
2023-04-21T09:46:16.230Z,991.99
2023-04-21T09:47:14.173Z,992.04
2023-04-21T09:48:14.172Z,992.15
2023-04-21T09:49:14.155Z,992.12
2023-04-21T09:50:14.189Z,992.16
2023-04-21T09:51:28.675Z,992.10
2023-04-21T09:52:19.414Z,992.11
2023-04-21T09:53:15.138Z,992.16
2023-04-21T09:54:28.375Z,992.16
2023-04-21T09:55:16.133Z,992.18
2023-04-21T09:56:14.115Z,992.13
2023-04-21T09:57:14.097Z,992.15
2023-04-21T09:58:14.087Z,992.22
2023-04-21T09:59:14.093Z,992.06
2023-04-21T10:00:14.123Z,992.11
2023-04-21T10:01:14.155Z,992.15
2023-04-21T10:02:14.140Z,992.02
2023-04-21T10:03:14.161Z,992.09
2023-04-21T10:04:14.260Z,992.08
2023-04-21T10:05:15.104Z,992.14
2023-04-21T10:06:14.093Z,992.13
2023-04-21T10:07:14.120Z,992.08
2023-04-21T10:08:14.045Z,992.14
2023-04-21T10:09:14.004Z,992.02
2023-04-21T10:10:14.075Z,992.09
2023-04-21T10:11:14.067Z,992.11
2023-04-21T10:12:14.002Z,992.14
2023-04-21T10:13:13.980Z,992.19
2023-04-21T10:14:13.983Z,992.16
2023-04-21T10:15:13.959Z,992.10
2023-04-21T10:16:14.036Z,992.16
2023-04-21T10:17:14.437Z,992.08
2023-04-21T10:18:13.995Z,992.12
2023-04-21T10:19:13.932Z,992.18
2023-04-21T10:20:13.920Z,992.14
2023-04-21T10:21:14.025Z,992.15
2023-04-21T10:22:13.939Z,992.09
2023-04-21T10:23:13.905Z,992.16
2023-04-21T10:24:13.889Z,992.08
2023-04-21T10:25:13.902Z,992.08
2023-04-21T10:26:13.969Z,991.98
2023-04-21T10:27:13.926Z,992.12
2023-04-21T10:28:13.866Z,992.06
2023-04-21T10:29:13.848Z,992.12
2023-04-21T10:30:13.842Z,992.10
2023-04-21T10:31:14.072Z,992.01
2023-04-21T10:32:13.863Z,991.99
2023-04-21T10:33:13.832Z,992.05
2023-04-21T10:34:13.819Z,992.03
2023-04-21T10:35:13.814Z,992.09
2023-04-21T10:36:13.829Z,992.04
2023-04-21T10:37:13.802Z,992.03
2023-04-21T10:38:13.788Z,991.96
2023-04-21T10:39:13.772Z,992.03
2023-04-21T10:40:13.850Z,992.09
2023-04-21T10:41:13.760Z,992.01
2023-04-21T10:42:13.826Z,992.02
2023-04-21T10:43:13.778Z,991.89
2023-04-21T10:44:14.773Z,991.81
2023-04-21T10:45:13.782Z,991.76
2023-04-21T10:46:13.772Z,991.91
2023-04-21T10:47:13.852Z,991.92
2023-04-21T10:48:14.429Z,991.90
2023-04-21T10:49:13.706Z,991.79
2023-04-21T10:50:13.707Z,991.77
2023-04-21T10:51:13.696Z,991.76
2023-04-21T10:52:13.707Z,991.73
2023-04-21T10:53:13.690Z,991.68
2023-04-21T10:54:13.682Z,991.63
2023-04-21T10:55:13.692Z,991.76
2023-04-21T10:56:13.667Z,991.65
2023-04-21T10:57:13.701Z,991.50
2023-04-21T10:58:13.640Z,991.75
2023-04-21T10:59:13.633Z,991.66
2023-04-21T11:00:13.640Z,991.73
2023-04-21T11:01:13.753Z,991.69
2023-04-21T11:02:13.724Z,991.69
2023-04-21T11:03:13.716Z,991.63
2023-04-21T11:04:13.870Z,991.51
2023-04-21T11:05:13.707Z,991.66
2023-04-21T11:06:13.579Z,991.59
2023-04-21T11:07:13.618Z,991.70
2023-04-21T11:08:13.558Z,991.58
2023-04-21T11:09:13.559Z,991.56
2023-04-21T11:10:13.717Z,991.50
2023-04-21T11:11:13.533Z,991.51
2023-04-21T11:12:13.556Z,991.48
2023-04-21T11:13:13.532Z,991.50
2023-04-21T11:14:13.512Z,991.45
2023-04-21T11:15:13.581Z,991.50
2023-04-21T11:16:13.525Z,991.52
2023-04-21T11:17:13.521Z,991.51
2023-04-21T11:18:13.533Z,991.47
2023-04-21T11:19:23.412Z,991.55
2023-04-21T11:20:13.511Z,991.38
2023-04-21T11:21:13.496Z,991.39
2023-04-21T11:22:13.506Z,991.41
2023-04-21T11:23:13.463Z,991.37
2023-04-21T11:24:13.437Z,991.34
2023-04-21T11:25:13.428Z,991.44
2023-04-21T11:26:13.443Z,991.24
2023-04-21T11:27:13.448Z,991.36
2023-04-21T11:28:13.411Z,991.30
2023-04-21T11:29:13.399Z,991.36
2023-04-21T11:30:13.401Z,991.47
2023-04-21T11:31:13.585Z,991.31
2023-04-21T11:32:13.408Z,991.38
2023-04-21T11:33:13.411Z,991.26
2023-04-21T11:34:13.371Z,991.21
2023-04-21T11:35:13.356Z,991.35
2023-04-21T11:36:13.361Z,991.25
2023-04-21T11:37:13.393Z,991.24
2023-04-21T11:38:13.334Z,991.18
2023-04-21T11:39:13.335Z,991.16
2023-04-21T11:40:13.324Z,991.24
2023-04-21T11:41:13.316Z,991.21
2023-04-21T11:42:13.340Z,991.09
2023-04-21T11:43:13.385Z,990.99
2023-04-21T11:44:13.303Z,991.13
2023-04-21T11:45:13.289Z,991.11
2023-04-21T11:46:13.411Z,991.18
2023-04-21T11:47:13.317Z,991.16
2023-04-21T11:48:13.287Z,990.99
2023-04-21T11:49:13.256Z,991.10
2023-04-21T11:50:13.261Z,991.09
2023-04-21T11:51:13.241Z,991.04
2023-04-21T11:52:13.275Z,990.98
2023-04-21T11:53:13.225Z,991.07
2023-04-21T11:54:13.226Z,991.20
2023-04-21T11:55:13.225Z,991.12
2023-04-21T11:56:13.206Z,990.97
2023-04-21T11:57:13.228Z,990.98
2023-04-21T11:58:13.186Z,990.90
2023-04-21T11:59:13.182Z,991.04
2023-04-21T12:00:13.181Z,990.90
2023-04-21T12:01:13.175Z,991.06
2023-04-21T12:02:13.235Z,991.09
2023-04-21T12:03:13.234Z,991.09
2023-04-21T12:04:13.232Z,991.15
2023-04-21T12:05:13.192Z,990.96
2023-04-21T12:06:13.190Z,990.86
2023-04-21T12:07:14.156Z,991.02
2023-04-21T12:08:13.109Z,991.02
2023-04-21T12:09:13.100Z,991.20
2023-04-21T12:10:13.122Z,991.01
2023-04-21T12:11:13.092Z,991.08
2023-04-21T12:12:13.112Z,991.00
2023-04-21T12:13:13.079Z,990.97
2023-04-21T12:14:13.067Z,990.96
2023-04-21T12:15:13.167Z,990.98
2023-04-21T12:16:13.068Z,990.96
2023-04-21T12:17:13.068Z,990.96
2023-04-21T12:18:13.069Z,990.94
2023-04-21T12:19:13.023Z,990.95
2023-04-21T12:20:13.025Z,990.99
2023-04-21T12:21:13.014Z,990.97
2023-04-21T12:22:14.028Z,990.83
2023-04-21T12:23:12.985Z,990.82
2023-04-21T12:24:12.978Z,990.81
2023-04-21T12:25:12.992Z,990.85
2023-04-21T12:26:12.972Z,990.82
2023-04-21T12:27:12.997Z,990.90
2023-04-21T12:28:12.969Z,990.96
2023-04-21T12:29:13.955Z,990.78